Time;durP1;ratioP1;P1;durP2;ratioP2;P2;SDS_P1;SDS_P2;PMS_P1;PMS_P2;Temp;Humidity;BMP_temperature;BMP_pressure;BME280_temperature;BME280_humidity;BME280_pressure;Samples;Min_cycle;Max_cycle;Signal;HPM_P1;HPM_P2
2021/06/28 00:01:16;;;;;;;2.20;1.53;;;20.70;99.90;;;;;;4946585;28;20666;-93
2021/06/28 00:03:44;;;;;;;2.67;1.50;;;20.50;99.90;;;;;;4945920;28;20753;-94
2021/06/28 00:06:12;;;;;;;2.10;1.90;;;20.50;99.90;;;;;;4947022;28;20621;-93
2021/06/28 00:08:42;;;;;;;1.87;1.63;;;20.30;99.90;;;;;;4946456;28;20629;-95
2021/06/28 00:11:10;;;;;;;1.87;1.77;;;20.20;99.90;;;;;;4946835;28;20666;-92
2021/06/28 00:13:38;;;;;;;2.27;1.67;;;20.20;99.90;;;;;;4948914;28;20624;-92
2021/06/28 00:16:06;;;;;;;1.97;1.80;;;20.00;99.90;;;;;;4952039;28;20640;-93
2021/06/28 00:18:34;;;;;;;2.60;1.80;;;20.00;99.90;;;;;;4950776;28;20588;-92
2021/06/28 00:21:02;;;;;;;2.00;1.80;;;19.90;99.90;;;;;;4950992;28;20759;-93
2021/06/28 00:23:29;;;;;;;2.30;2.13;;;19.90;99.90;;;;;;4947908;28;20673;-91
2021/06/28 00:25:56;;;;;;;2.10;1.90;;;19.90;99.90;;;;;;4949219;28;21195;-92
2021/06/28 00:28:22;;;;;;;2.50;2.30;;;19.80;99.90;;;;;;4943048;28;21012;-92
2021/06/28 00:30:50;;;;;;;5.93;2.40;;;19.80;99.90;;;;;;4951356;28;21173;-92
2021/06/28 00:33:20;;;;;;;6.23;2.60;;;19.80;99.90;;;;;;4950417;28;20621;-92
2021/06/28 00:35:50;;;;;;;3.27;2.77;;;19.80;99.90;;;;;;4952051;28;20591;-93
2021/06/28 00:38:17;;;;;;;2.67;2.47;;;19.70;99.90;;;;;;4949738;28;21314;-92
2021/06/28 00:40:45;;;;;;;3.80;2.53;;;19.60;99.90;;;;;;4953061;28;20653;-94
2021/06/28 00:43:13;;;;;;;5.10;2.40;;;19.70;99.90;;;;;;4952569;28;20638;-95
2021/06/28 00:45:42;;;;;;;5.10;2.73;;;19.70;99.90;;;;;;4949655;28;20671;-93
2021/06/28 00:48:11;;;;;;;2.30;2.10;;;19.70;99.90;;;;;;4948787;28;20650;-93
2021/06/28 00:50:41;;;;;;;3.50;3.00;;;19.70;99.90;;;;;;4954514;28;21186;-94
2021/06/28 00:53:12;;;;;;;4.20;3.57;;;19.70;99.90;;;;;;4951290;28;20643;-93
2021/06/28 00:55:39;;;;;;;4.17;3.40;;;19.60;99.90;;;;;;4955035;28;20856;-94
2021/06/28 00:58:06;;;;;;;3.10;2.80;;;19.50;99.90;;;;;;4952554;28;21291;-94
2021/06/28 01:00:34;;;;;;;4.20;3.80;;;19.50;99.90;;;;;;4953463;28;20652;-95
2021/06/28 01:03:01;;;;;;;3.70;3.10;;;19.40;99.90;;;;;;4949713;28;20746;-92
2021/06/28 01:05:31;;;;;;;3.63;3.27;;;19.50;99.90;;;;;;4949801;28;20631;-93
2021/06/28 01:08:00;;;;;;;3.40;3.20;;;19.40;99.90;;;;;;4920589;28;20668;-94
2021/06/28 01:10:28;;;;;;;3.10;2.90;;;19.40;99.90;;;;;;4954548;28;20661;-94
2021/06/28 01:12:57;;;;;;;5.00;2.83;;;19.50;99.90;;;;;;4963096;28;20620;-94
2021/06/28 01:15:25;;;;;;;3.40;3.10;;;19.40;99.90;;;;;;4935527;28;20642;-93
2021/06/28 01:17:53;;;;;;;3.80;3.50;;;19.40;99.90;;;;;;4931528;28;20647;-92
2021/06/28 01:20:21;;;;;;;4.23;3.27;;;19.40;99.90;;;;;;4947800;28;20640;-93
2021/06/28 01:22:50;;;;;;;3.33;3.13;;;19.40;99.90;;;;;;4949663;28;20634;-92
2021/06/28 01:25:20;;;;;;;3.33;3.03;;;19.40;99.90;;;;;;4944722;28;20657;-93
2021/06/28 01:27:48;;;;;;;3.03;2.83;;;19.30;99.90;;;;;;4949161;28;20622;-93
2021/06/28 01:30:18;;;;;;;3.60;3.30;;;19.30;99.90;;;;;;4953393;28;21186;-93
2021/06/28 01:32:45;;;;;;;3.00;2.80;;;19.20;99.90;;;;;;4958881;28;20622;-92
2021/06/28 01:35:13;;;;;;;4.70;3.00;;;19.20;99.90;;;;;;4959653;28;20631;-93
2021/06/28 01:37:40;;;;;;;3.10;2.80;;;19.20;99.90;;;;;;4952315;28;20661;-93
2021/06/28 01:40:10;;;;;;;5.17;3.23;;;19.30;99.90;;;;;;4949271;28;20638;-93
2021/06/28 01:42:39;;;;;;;3.70;3.17;;;19.40;99.90;;;;;;4948923;28;20626;-94
2021/06/28 01:45:07;;;;;;;3.40;3.10;;;19.40;99.90;;;;;;4967803;28;20668;-92
2021/06/28 01:47:35;;;;;;;2.87;2.67;;;19.40;99.90;;;;;;4950954;28;20698;-93
2021/06/28 01:50:01;;;;;;;3.10;2.90;;;19.30;99.90;;;;;;4954781;28;21024;-93
2021/06/28 01:52:28;;;;;;;3.47;2.77;;;19.20;99.90;;;;;;4949664;28;20642;-93
2021/06/28 01:54:55;;;;;;;2.97;2.87;;;19.20;99.90;;;;;;4930979;28;20627;-95
2021/06/28 01:57:22;;;;;;;2.70;2.50;;;19.20;99.90;;;;;;4947150;28;20629;-94
2021/06/28 01:59:51;;;;;;;3.23;2.80;;;19.20;99.90;;;;;;4949132;28;20814;-93
2021/06/28 02:02:18;;;;;;;2.90;2.70;;;19.20;99.90;;;;;;4960475;28;20591;-96
2021/06/28 02:04:47;;;;;;;2.97;2.63;;;19.20;99.90;;;;;;4976077;28;20654;-95
2021/06/28 02:07:14;;;;;;;3.50;3.20;;;19.10;99.90;;;;;;4972378;28;20615;-94
2021/06/28 02:09:41;;;;;;;2.90;2.70;;;19.10;99.90;;;;;;4970741;28;20638;-95
2021/06/28 02:12:10;;;;;;;3.10;2.90;;;19.10;99.90;;;;;;4972587;28;20625;-94
2021/06/28 02:14:39;;;;;;;3.50;2.63;;;19.10;99.90;;;;;;4972445;28;20658;-94
2021/06/28 02:17:07;;;;;;;2.90;2.53;;;19.10;99.90;;;;;;4972577;28;20640;-93
2021/06/28 02:19:35;;;;;;;3.10;2.90;;;19.00;99.90;;;;;;4935338;28;20636;-94
2021/06/28 02:22:02;;;;;;;3.37;3.07;;;19.00;99.90;;;;;;4931505;28;20626;-92
2021/06/28 02:24:29;;;;;;;4.10;2.90;;;19.00;99.90;;;;;;4954957;28;20696;-94
2021/06/28 02:26:56;;;;;;;3.20;3.00;;;19.00;99.90;;;;;;4952261;28;20649;-93
2021/06/28 02:29:23;;;;;;;3.03;2.73;;;19.00;99.90;;;;;;4952309;28;20662;-95
2021/06/28 02:31:49;;;;;;;3.10;2.90;;;19.00;99.90;;;;;;4952161;28;20646;-95
2021/06/28 02:34:18;;;;;;;2.80;2.60;;;19.00;99.90;;;;;;4949345;28;21040;-95
2021/06/28 02:36:45;;;;;;;5.67;3.50;;;19.00;99.90;;;;;;4951418;28;20627;-95
2021/06/28 02:39:12;;;;;;;4.93;3.00;;;19.00;99.90;;;;;;4952651;28;21105;-95
2021/06/28 02:41:40;;;;;;;4.63;2.97;;;19.00;99.90;;;;;;4945820;28;20646;-93
2021/06/28 02:44:08;;;;;;;3.10;2.80;;;19.00;99.90;;;;;;4946331;28;20631;-93
2021/06/28 02:46:35;;;;;;;3.40;3.20;;;18.90;99.90;;;;;;4943688;28;20634;-93
2021/06/28 02:49:02;;;;;;;3.17;2.97;;;18.90;99.90;;;;;;4944798;28;20678;-94
2021/06/28 02:51:31;;;;;;;3.50;3.20;;;18.90;99.90;;;;;;4931202;28;20709;-93
2021/06/28 02:53:58;;;;;;;3.03;2.83;;;18.80;99.90;;;;;;4946842;28;20659;-93
2021/06/28 02:56:26;;;;;;;3.57;3.07;;;18.80;99.90;;;;;;4946651;28;20641;-92
2021/06/28 02:58:56;;;;;;;3.87;3.00;;;18.80;99.90;;;;;;4948148;28;20886;-92
2021/06/28 03:01:26;;;;;;;2.97;2.77;;;18.80;99.90;;;;;;4945114;28;20637;-93
2021/06/28 03:03:53;;;;;;;3.40;3.10;;;18.70;99.90;;;;;;4946830;28;20666;-93
2021/06/28 03:06:21;;;;;;;2.93;2.63;;;18.80;99.90;;;;;;4948110;28;20674;-93
2021/06/28 03:08:50;;;;;;;3.73;3.43;;;18.70;99.90;;;;;;4948668;28;21037;-93
2021/06/28 03:11:20;;;;;;;3.07;2.83;;;18.70;99.90;;;;;;4947965;28;20638;-92
2021/06/28 03:13:47;;;;;;;4.70;2.80;;;18.80;99.90;;;;;;4948918;28;20761;-94
2021/06/28 03:16:14;;;;;;;3.20;2.90;;;18.90;99.90;;;;;;4927806;28;21216;-93
2021/06/28 03:18:41;;;;;;;3.70;2.70;;;18.90;99.90;;;;;;4947778;28;21251;-92
2021/06/28 03:21:11;;;;;;;4.03;3.17;;;18.90;99.90;;;;;;4948598;28;21110;-93
2021/06/28 03:23:38;;;;;;;3.77;3.47;;;18.80;99.90;;;;;;4950369;28;20826;-95
2021/06/28 03:26:07;;;;;;;3.00;2.80;;;18.80;99.90;;;;;;4946899;28;20672;-92
2021/06/28 03:28:35;;;;;;;3.93;3.53;;;18.80;99.90;;;;;;4949337;28;20669;-92
2021/06/28 03:31:05;;;;;;;3.70;3.40;;;18.70;99.90;;;;;;4948432;28;20645;-93
2021/06/28 03:33:32;;;;;;;5.70;4.83;;;18.70;99.90;;;;;;4948568;28;20644;-95
2021/06/28 03:35:58;;;;;;;3.33;3.13;;;18.70;99.90;;;;;;4946515;28;20641;-93
2021/06/28 03:38:25;;;;;;;3.30;3.10;;;18.70;99.90;;;;;;4951422;28;20761;-96
2021/06/28 03:40:52;;;;;;;4.30;3.40;;;18.80;99.90;;;;;;4948901;28;21211;-93
2021/06/28 03:43:21;;;;;;;4.00;3.33;;;18.80;99.90;;;;;;4952526;28;20633;-95
2021/06/28 03:45:48;;;;;;;3.10;2.90;;;18.70;99.90;;;;;;4961831;28;20638;-95
2021/06/28 03:48:15;;;;;;;3.20;3.00;;;18.60;99.90;;;;;;4964515;28;20674;-93
2021/06/28 03:50:43;;;;;;;3.40;2.80;;;18.60;99.90;;;;;;4959108;28;20634;-92
2021/06/28 03:53:10;;;;;;;3.20;3.00;;;18.50;99.90;;;;;;4955072;28;20669;-92
2021/06/28 03:55:37;;;;;;;6.63;3.77;;;18.60;99.90;;;;;;4941432;28;20635;-93
2021/06/28 03:58:06;;;;;;;3.90;3.10;;;18.60;99.90;;;;;;4950305;28;21017;-94
2021/06/28 04:00:34;;;;;;;6.37;3.80;;;18.70;99.90;;;;;;4952770;28;20739;-94
2021/06/28 04:03:02;;;;;;;4.23;3.50;;;18.80;99.90;;;;;;4952612;28;20644;-94
2021/06/28 04:05:29;;;;;;;4.20;3.90;;;18.80;99.90;;;;;;4949662;28;20671;-95
2021/06/28 04:07:56;;;;;;;3.87;3.47;;;18.80;99.90;;;;;;4953749;28;21197;-95
2021/06/28 04:10:25;;;;;;;4.20;3.80;;;18.90;99.90;;;;;;4954030;28;20638;-95
2021/06/28 04:12:54;;;;;;;5.40;3.17;;;19.00;99.90;;;;;;4953279;28;20688;-95
2021/06/28 04:15:22;;;;;;;3.27;2.90;;;19.00;99.90;;;;;;4952088;28;20650;-95
2021/06/28 04:17:52;;;;;;;3.87;3.33;;;19.20;99.90;;;;;;4943983;28;20690;-95
2021/06/28 04:20:22;;;;;;;4.17;3.40;;;19.20;99.90;;;;;;4953938;28;20664;-96
2021/06/28 04:22:50;;;;;;;3.80;3.23;;;19.20;99.90;;;;;;4949342;28;20752;-94
2021/06/28 04:25:19;;;;;;;4.43;3.20;;;19.10;99.90;;;;;;4950698;28;20680;-96
2021/06/28 04:27:47;;;;;;;4.00;3.30;;;19.00;99.90;;;;;;4950656;28;21161;-94
2021/06/28 04:30:17;;;;;;;3.13;2.80;;;19.10;99.90;;;;;;4946347;28;20630;-95
2021/06/28 04:32:45;;;;;;;7.10;3.60;;;19.00;99.90;;;;;;4950620;28;20654;-95
2021/06/28 04:35:16;;;;;;;4.70;2.70;;;19.10;99.90;;;;;;4934324;28;20630;-95
2021/06/28 04:37:44;;;;;;;5.03;3.97;;;19.10;99.90;;;;;;4936738;28;20627;-96
2021/06/28 04:40:14;;;;;;;4.40;3.60;;;19.10;99.90;;;;;;4948572;28;20621;-94
2021/06/28 04:42:44;;;;;;;3.87;3.50;;;19.20;99.90;;;;;;4949116;28;20666;-94
2021/06/28 04:45:13;;;;;;;6.83;3.93;;;19.20;99.90;;;;;;4945534;28;20781;-92
2021/06/28 04:47:40;;;;;;;4.10;3.70;;;19.20;99.90;;;;;;4952174;28;20650;-93
2021/06/28 04:50:09;;;;;;;2.57;2.47;;;19.20;99.90;;;;;;4951985;28;20622;-93
2021/06/28 04:52:39;;;;;;;2.90;2.70;;;19.30;99.90;;;;;;4952927;28;20677;-93
2021/06/28 04:55:11;;;;;;;3.57;3.27;;;19.30;99.90;;;;;;4960981;28;20654;-94
2021/06/28 04:57:38;;;;;;;3.53;3.23;;;19.40;99.90;;;;;;4968131;28;20662;-92
2021/06/28 05:00:07;;;;;;;4.20;3.90;;;19.50;99.90;;;;;;4974001;28;20673;-95
2021/06/28 05:02:36;;;;;;;4.10;3.70;;;19.50;99.90;;;;;;4970996;28;20650;-92
2021/06/28 05:05:04;;;;;;;3.50;3.20;;;19.60;99.90;;;;;;4953568;28;20698;-95
2021/06/28 05:07:35;;;;;;;3.83;3.47;;;19.50;99.90;;;;;;4952956;28;20642;-94
2021/06/28 05:10:06;;;;;;;3.63;3.33;;;19.50;99.90;;;;;;4953138;28;20725;-94
2021/06/28 05:12:35;;;;;;;4.50;3.47;;;19.40;99.90;;;;;;4954665;28;21140;-94
2021/06/28 05:15:02;;;;;;;4.50;3.37;;;19.50;99.90;;;;;;4957224;28;20646;-90
2021/06/28 05:17:31;;;;;;;4.27;3.93;;;19.50;99.90;;;;;;4948750;28;20657;-90
2021/06/28 05:19:59;;;;;;;3.73;3.43;;;19.50;99.90;;;;;;4951285;28;20682;-93
2021/06/28 05:22:32;;;;;;;3.97;3.00;;;19.50;99.90;;;;;;4952509;28;21418;-93
2021/06/28 05:24:59;;;;;;;3.90;3.60;;;19.60;99.90;;;;;;4952486;28;20630;-93
2021/06/28 05:27:27;;;;;;;4.33;3.37;;;19.60;99.90;;;;;;4950483;28;20658;-94
2021/06/28 05:29:58;;;;;;;3.63;3.33;;;19.60;99.90;;;;;;4947432;28;20631;-92
2021/06/28 05:32:28;;;;;;;3.43;3.20;;;19.70;99.90;;;;;;4949769;28;20632;-92
2021/06/28 05:34:55;;;;;;;4.20;3.90;;;19.70;99.90;;;;;;4952370;28;20627;-91
2021/06/28 05:37:22;;;;;;;4.73;3.60;;;19.70;99.90;;;;;;4943841;28;20621;-92
2021/06/28 05:39:50;;;;;;;4.90;3.63;;;19.60;99.90;;;;;;4950301;28;20615;-94
2021/06/28 05:42:17;;;;;;;4.83;3.20;;;19.60;99.90;;;;;;4950433;28;20644;-93
2021/06/28 05:44:52;;;;;;;3.73;3.50;;;19.70;99.90;;;;;;4953974;28;20649;-92
2021/06/28 05:47:22;;;;;;;5.50;3.73;;;19.70;99.90;;;;;;4950650;28;20727;-94
2021/06/28 05:49:49;;;;;;;4.63;3.50;;;19.80;99.90;;;;;;4948562;28;21069;-93
2021/06/28 05:52:19;;;;;;;3.63;3.33;;;19.90;99.90;;;;;;4952080;28;20630;-92
2021/06/28 05:54:46;;;;;;;4.10;3.70;;;20.00;99.90;;;;;;4950412;28;20734;-92
2021/06/28 05:57:13;;;;;;;4.23;3.80;;;20.10;99.90;;;;;;4956192;28;21268;-90
2021/06/28 05:59:40;;;;;;;3.80;2.93;;;20.20;99.90;;;;;;4954262;28;20656;-92
2021/06/28 06:02:11;;;;;;;3.90;3.60;;;20.30;99.90;;;;;;4953392;28;20743;-93
2021/06/28 06:04:38;;;;;;;4.87;4.43;;;20.30;99.90;;;;;;4953552;28;20594;-92
2021/06/28 06:07:08;;;;;;;4.33;3.93;;;20.40;99.90;;;;;;4953124;28;20662;-94
2021/06/28 06:09:35;;;;;;;4.20;3.80;;;20.50;99.90;;;;;;4954279;28;20635;-92
2021/06/28 06:12:03;;;;;;;6.13;3.70;;;20.60;99.90;;;;;;4949887;28;20661;-92
2021/06/28 06:14:30;;;;;;;6.40;3.00;;;20.60;99.90;;;;;;4951946;28;20677;-92
2021/06/28 06:16:57;;;;;;;4.70;2.90;;;20.70;99.90;;;;;;4949140;28;20650;-92
2021/06/28 06:19:26;;;;;;;2.57;2.37;;;20.90;99.90;;;;;;4950529;28;20634;-94
2021/06/28 06:21:53;;;;;;;2.70;2.50;;;21.00;99.90;;;;;;4955428;28;20642;-92
2021/06/28 06:24:24;;;;;;;3.70;2.30;;;21.10;99.90;;;;;;4953071;28;20654;-92
2021/06/28 06:26:50;;;;;;;4.03;3.20;;;21.20;99.90;;;;;;4946830;28;20658;-91
2021/06/28 06:29:17;;;;;;;2.77;2.40;;;21.40;99.90;;;;;;4946187;28;20618;-95
2021/06/28 06:31:44;;;;;;;2.37;2.20;;;21.50;99.90;;;;;;4954610;28;20631;-94
2021/06/28 06:34:11;;;;;;;2.87;2.63;;;21.60;99.90;;;;;;4951811;28;20673;-90
2021/06/28 06:36:39;;;;;;;5.40;2.50;;;21.60;99.90;;;;;;4944670;28;20746;-89
2021/06/28 06:39:06;;;;;;;3.00;2.67;;;21.90;99.90;;;;;;4947830;28;21004;-91
2021/06/28 06:41:33;;;;;;;2.87;2.67;;;22.00;99.90;;;;;;4949083;28;20649;-87
2021/06/28 06:44:00;;;;;;;10.00;2.73;;;22.20;99.90;;;;;;4947846;28;20658;-88
2021/06/28 06:46:27;;;;;;;5.13;2.80;;;22.50;99.90;;;;;;4942607;28;20731;-88
2021/06/28 06:48:54;;;;;;;3.67;2.43;;;22.50;99.90;;;;;;4941836;28;20659;-93
2021/06/28 06:51:21;;;;;;;1.90;1.80;;;22.40;99.90;;;;;;4945849;28;20674;-93
2021/06/28 06:53:49;;;;;;;3.60;2.50;;;22.40;99.90;;;;;;4949875;28;20639;-92
2021/06/28 06:56:16;;;;;;;3.70;2.73;;;22.40;99.90;;;;;;4950044;28;20633;-92
2021/06/28 06:58:43;;;;;;;3.20;2.77;;;22.40;99.90;;;;;;4948025;28;20627;-92
2021/06/28 07:01:15;;;;;;;2.60;2.40;;;22.50;99.90;;;;;;4947741;28;20661;-92
2021/06/28 07:03:43;;;;;;;5.13;2.33;;;22.60;99.90;;;;;;4951137;28;20666;-92
2021/06/28 07:06:11;;;;;;;2.53;2.33;;;22.80;99.90;;;;;;4952371;28;20657;-93
2021/06/28 07:08:38;;;;;;;2.67;2.47;;;22.80;99.90;;;;;;4944670;28;20631;-92
2021/06/28 07:11:11;;;;;;;3.50;3.30;;;22.90;99.90;;;;;;4946559;28;20663;-92
2021/06/28 07:13:38;;;;;;;5.93;2.93;;;23.10;99.90;;;;;;4948627;28;20639;-93
2021/06/28 07:16:06;;;;;;;2.90;2.70;;;23.20;99.90;;;;;;4947807;28;20646;-93
2021/06/28 07:18:33;;;;;;;2.90;2.70;;;23.30;99.90;;;;;;4944766;28;20710;-93
2021/06/28 07:21:02;;;;;;;2.60;2.40;;;23.50;99.90;;;;;;4945513;28;20665;-92
2021/06/28 07:23:29;;;;;;;3.13;2.70;;;23.40;99.90;;;;;;4952114;28;20624;-93
2021/06/28 07:25:56;;;;;;;2.63;2.43;;;23.40;99.90;;;;;;4949267;28;20662;-93
2021/06/28 07:28:28;;;;;;;2.80;2.60;;;23.50;99.90;;;;;;4945463;28;20629;-93
2021/06/28 07:30:58;;;;;;;3.17;2.93;;;23.60;99.90;;;;;;4950312;28;20662;-92
2021/06/28 07:33:25;;;;;;;3.70;2.70;;;23.60;99.90;;;;;;4946612;28;20630;-92
2021/06/28 07:35:53;;;;;;;2.90;2.10;;;23.50;99.90;;;;;;4948954;28;20630;-92
2021/06/28 07:38:27;;;;;;;2.97;2.73;;;23.60;99.90;;;;;;4950095;28;20658;-92
2021/06/28 07:40:54;;;;;;;3.23;2.70;;;23.80;99.90;;;;;;4947038;28;20682;-93
2021/06/28 07:43:21;;;;;;;3.13;2.33;;;23.90;99.90;;;;;;4950721;28;20667;-92
2021/06/28 07:45:49;;;;;;;2.97;2.50;;;24.10;99.90;;;;;;4952978;28;21358;-93
2021/06/28 07:48:16;;;;;;;3.30;2.53;;;24.10;99.90;;;;;;4949567;28;21180;-93
2021/06/28 07:50:44;;;;;;;2.80;2.60;;;24.20;99.90;;;;;;4949058;28;20662;-94
2021/06/28 07:53:11;;;;;;;3.20;2.90;;;24.40;99.90;;;;;;4949016;28;20960;-93
2021/06/28 07:55:39;;;;;;;3.70;2.63;;;24.50;99.90;;;;;;4953542;28;20634;-94
2021/06/28 07:58:06;;;;;;;2.60;2.40;;;24.60;99.90;;;;;;4951482;28;21205;-93
2021/06/28 08:00:34;;;;;;;2.70;2.50;;;24.50;99.90;;;;;;4944806;28;21026;-93
2021/06/28 08:03:03;;;;;;;3.60;2.80;;;24.60;99.90;;;;;;4945739;28;20630;-93
2021/06/28 08:05:31;;;;;;;3.73;2.50;;;24.60;99.90;;;;;;4947601;28;20719;-92
2021/06/28 08:07:59;;;;;;;2.97;2.67;;;24.60;99.90;;;;;;4946510;28;20645;-94
2021/06/28 08:10:26;;;;;;;3.57;3.37;;;24.70;99.90;;;;;;4944930;28;22217;-93
2021/06/28 08:12:53;;;;;;;2.53;2.33;;;24.80;99.90;;;;;;4953805;28;20753;-92
2021/06/28 08:15:21;;;;;;;3.43;2.50;;;25.00;99.90;;;;;;4945830;28;20651;-92
2021/06/28 08:17:48;;;;;;;4.50;2.50;;;25.20;99.90;;;;;;4947945;28;21005;-92
2021/06/28 08:20:20;;;;;;;2.73;2.53;;;25.30;99.90;;;;;;4939087;28;20671;-93
2021/06/28 08:22:47;;;;;;;2.83;2.63;;;25.20;99.90;;;;;;4940913;28;20637;-92
2021/06/28 08:25:16;;;;;;;2.33;2.20;;;25.30;99.90;;;;;;4948750;28;20636;-94
2021/06/28 08:27:44;;;;;;;7.50;2.80;;;25.40;99.90;;;;;;4944301;28;20673;-93
2021/06/28 08:30:13;;;;;;;3.00;2.40;;;25.50;99.90;;;;;;4944585;28;20666;-93
2021/06/28 08:32:40;;;;;;;2.83;2.53;;;25.50;99.90;;;;;;4946788;28;20610;-93
2021/06/28 08:35:08;;;;;;;2.50;2.30;;;25.50;99.90;;;;;;4947343;28;21252;-93
2021/06/28 08:37:37;;;;;;;2.57;2.37;;;25.60;99.90;;;;;;4955190;28;20637;-93
2021/06/28 08:40:12;;;;;;;2.20;2.10;;;25.70;99.90;;;;;;4953393;28;21303;-92
2021/06/28 08:42:39;;;;;;;2.40;2.30;;;25.80;99.90;;;;;;4952557;28;20634;-92
2021/06/28 08:45:08;;;;;;;2.40;2.20;;;26.00;99.90;;;;;;4950141;28;20677;-93
2021/06/28 08:47:35;;;;;;;3.30;2.80;;;25.80;99.90;;;;;;4948957;28;20672;-91
2021/06/28 08:50:04;;;;;;;3.87;2.60;;;26.00;99.90;;;;;;4954109;28;20770;-92
2021/06/28 08:52:36;;;;;;;4.73;2.37;;;26.10;99.90;;;;;;4950714;28;20737;-93
2021/06/28 08:55:04;;;;;;;3.57;2.60;;;26.30;99.90;;;;;;4954518;28;20650;-94
2021/06/28 08:57:32;;;;;;;4.30;2.60;;;26.50;99.90;;;;;;4952898;28;20652;-93
2021/06/28 09:00:01;;;;;;;2.80;2.10;;;26.30;99.90;;;;;;4950175;28;20672;-92
2021/06/28 09:02:28;;;;;;;2.50;2.30;;;26.50;99.90;;;;;;4946144;28;20762;-93
2021/06/28 09:04:59;;;;;;;2.80;2.60;;;26.60;99.90;;;;;;4949758;28;21170;-93
2021/06/28 09:07:34;;;;;;;2.30;2.10;;;26.70;99.90;;;;;;4953325;28;20681;-93
2021/06/28 09:10:36;;;;;;;2.40;2.20;;;26.80;99.90;;;;;;4948484;28;21182;-93
2021/06/28 09:13:04;;;;;;;2.37;2.17;;;26.80;99.90;;;;;;4949776;28;21073;-93
2021/06/28 09:15:40;;;;;;;2.50;2.40;;;26.80;99.90;;;;;;4952181;28;20647;-93
2021/06/28 09:18:26;;;;;;;2.27;2.17;;;27.10;99.90;;;;;;4949462;28;20729;-93
2021/06/28 09:21:08;;;;;;;2.20;2.10;;;27.30;99.90;;;;;;4955425;28;20667;-93
2021/06/28 09:26:33;;;;;;;2.37;2.17;;;27.70;97.80;;;;;;4953213;28;20642;-93
2021/06/28 09:29:06;;;;;;;2.20;1.77;;;27.70;97.50;;;;;;4941870;28;20662;-93
2021/06/28 09:31:42;;;;;;;3.30;2.30;;;27.90;98.10;;;;;;4953991;28;20630;-91
2021/06/28 09:34:18;;;;;;;2.80;2.23;;;28.10;98.70;;;;;;4955578;28;21288;-94
2021/06/28 09:36:53;;;;;;;2.30;2.20;;;27.80;95.40;;;;;;4950941;28;21001;-94
2021/06/28 09:39:26;;;;;;;2.60;2.13;;;28.10;96.00;;;;;;4948671;28;20674;-93
2021/06/28 09:42:11;;;;;;;3.63;1.90;;;28.10;96.80;;;;;;4947778;28;20630;-94
2021/06/28 09:44:41;;;;;;;2.57;2.40;;;28.10;96.30;;;;;;4949261;28;20648;-92
2021/06/28 09:47:12;;;;;;;2.00;1.90;;;28.20;94.30;;;;;;4950391;28;20665;-94
2021/06/28 09:49:43;;;;;;;3.30;1.90;;;28.30;95.70;;;;;;4950222;28;20721;-94
2021/06/28 09:52:29;;;;;;;3.27;1.60;;;28.30;95.30;;;;;;4955702;28;20626;-93
2021/06/28 09:54:56;;;;;;;1.57;1.37;;;28.10;95.70;;;;;;4958424;28;20637;-94
2021/06/28 09:57:26;;;;;;;2.20;1.80;;;28.30;94.10;;;;;;4961326;28;20656;-93
2021/06/28 09:59:54;;;;;;;2.53;2.20;;;28.50;94.10;;;;;;4953916;28;20718;-95
2021/06/28 10:02:25;;;;;;;2.87;2.30;;;28.80;95.80;;;;;;4943891;28;20722;-94
2021/06/28 10:04:58;;;;;;;2.27;1.73;;;29.00;93.90;;;;;;4948253;28;20709;-94
2021/06/28 10:07:27;;;;;;;2.13;1.93;;;29.10;93.20;;;;;;4945799;28;20666;-90
2021/06/28 10:10:19;;;;;;;1.77;1.67;;;28.90;92.80;;;;;;4950311;28;20670;-93
2021/06/28 10:13:00;;;;;;;2.33;1.70;;;28.90;92.70;;;;;;4952948;28;21185;-91
2021/06/28 10:15:29;;;;;;;3.23;1.90;;;29.20;93.00;;;;;;4952072;28;20643;-92
2021/06/28 10:18:00;;;;;;;1.87;1.60;;;29.30;92.00;;;;;;4941695;28;20666;-92
2021/06/28 10:20:32;;;;;;;2.60;1.83;;;29.30;94.20;;;;;;4943984;28;20765;-92
2021/06/28 10:23:01;;;;;;;2.17;2.07;;;29.50;93.60;;;;;;4948111;28;21300;-93
2021/06/28 10:25:38;;;;;;;3.40;2.13;;;29.50;93.80;;;;;;4941554;28;20729;-93
2021/06/28 10:28:07;;;;;;;2.30;2.10;;;29.30;92.10;;;;;;4942739;28;20776;-93
2021/06/28 10:30:36;;;;;;;3.23;1.93;;;29.40;92.60;;;;;;4949347;28;20660;-93
2021/06/28 10:33:08;;;;;;;2.10;2.00;;;29.90;92.00;;;;;;4946357;28;20637;-92
2021/06/28 10:35:38;;;;;;;1.73;1.63;;;30.20;91.50;;;;;;4949401;28;20637;-93
2021/06/28 10:38:07;;;;;;;2.27;2.10;;;30.10;91.50;;;;;;4947018;28;20638;-93
2021/06/28 10:40:54;;;;;;;2.70;2.10;;;30.30;91.70;;;;;;4948852;28;20654;-92
2021/06/28 10:43:29;;;;;;;2.50;2.30;;;30.40;91.60;;;;;;4945931;28;21202;-93
2021/06/28 10:45:56;;;;;;;2.07;1.90;;;30.60;92.50;;;;;;4947917;28;20665;-93
2021/06/28 10:48:25;;;;;;;2.57;2.30;;;31.00;91.30;;;;;;4946150;28;20672;-92
2021/06/28 10:51:02;;;;;;;2.30;2.10;;;30.60;91.80;;;;;;4948089;28;21090;-92
2021/06/28 10:54:00;;;;;;;2.73;2.53;;;31.00;92.10;;;;;;4947649;28;20638;-93
2021/06/28 10:56:49;;;;;;;3.10;2.23;;;31.30;90.10;;;;;;4944862;28;20725;-92
2021/06/28 10:59:29;;;;;;;2.83;2.67;;;31.20;90.60;;;;;;4947535;28;20662;-92
2021/06/28 11:02:09;;;;;;;2.40;2.30;;;30.60;90.90;;;;;;4951337;28;20649;-91
2021/06/28 11:04:38;;;;;;;2.87;2.63;;;30.60;91.10;;;;;;4949705;28;21021;-93
2021/06/28 11:07:19;;;;;;;8.93;2.40;;;30.80;90.40;;;;;;4947016;28;20699;-93
2021/06/28 11:09:49;;;;;;;2.60;2.40;;;31.40;92.70;;;;;;4954817;28;20677;-92
2021/06/28 11:12:32;;;;;;;3.07;2.87;;;31.10;90.10;;;;;;4951954;28;20630;-93
2021/06/28 11:15:07;;;;;;;3.17;2.87;;;31.50;91.30;;;;;;4949266;28;20644;-93
2021/06/28 11:17:46;;;;;;;3.17;2.97;;;31.80;90.80;;;;;;4950826;28;20648;-93
2021/06/28 11:20:27;;;;;;;2.80;2.60;;;31.60;91.30;;;;;;4947656;28;20763;-93
2021/06/28 11:23:04;;;;;;;2.87;2.67;;;31.30;90.20;;;;;;4942744;28;20627;-93
2021/06/28 11:25:45;;;;;;;5.30;3.10;;;31.60;90.30;;;;;;4947433;28;21295;-93
2021/06/28 11:28:22;;;;;;;3.37;3.17;;;32.10;88.80;;;;;;4947601;28;20649;-92
2021/06/28 11:31:02;;;;;;;3.50;2.67;;;31.80;89.00;;;;;;4949471;28;21278;-93
2021/06/28 11:33:35;;;;;;;2.60;2.40;;;32.20;91.50;;;;;;4946630;28;21321;-92
2021/06/28 11:36:06;;;;;;;2.97;2.63;;;32.10;90.10;;;;;;4948576;28;21022;-94
2021/06/28 11:38:39;;;;;;;2.90;2.70;;;32.20;88.50;;;;;;4949372;28;20640;-93
2021/06/28 11:41:18;;;;;;;3.70;2.43;;;32.30;89.00;;;;;;4952962;28;20732;-93
2021/06/28 11:43:47;;;;;;;2.77;2.50;;;32.70;88.70;;;;;;4952942;28;20640;-93
2021/06/28 11:46:20;;;;;;;3.13;2.93;;;32.70;89.00;;;;;;4947867;28;20658;-93
2021/06/28 11:49:02;;;;;;;113.93;28.37;;;32.70;90.20;;;;;;4953107;28;20756;-93
2021/06/28 11:51:34;;;;;;;2.90;2.70;;;32.60;86.70;;;;;;4952996;28;20741;-93
2021/06/28 11:54:04;;;;;;;9.00;3.10;;;32.20;89.40;;;;;;4952646;28;20708;-93
2021/06/28 11:56:42;;;;;;;3.70;3.40;;;32.90;88.10;;;;;;4954041;28;20793;-93
2021/06/28 11:59:17;;;;;;;3.10;2.90;;;32.70;84.40;;;;;;4953918;28;20641;-93
2021/06/28 12:02:04;;;;;;;3.17;2.87;;;32.50;87.00;;;;;;4956466;28;20713;-93
2021/06/28 12:04:43;;;;;;;3.07;2.87;;;32.60;86.90;;;;;;4954107;28;20657;-93
2021/06/28 12:07:13;;;;;;;3.73;3.43;;;33.00;85.90;;;;;;4954094;28;20688;-92
2021/06/28 12:09:46;;;;;;;3.40;3.20;;;33.30;85.00;;;;;;4961123;28;20591;-93
2021/06/28 12:12:17;;;;;;;2.77;2.57;;;33.20;84.40;;;;;;4960936;28;20709;-93
2021/06/28 12:14:52;;;;;;;3.30;3.10;;;32.40;86.40;;;;;;4960570;28;20708;-93
2021/06/28 12:17:23;;;;;;;3.37;3.17;;;32.50;87.30;;;;;;4971749;28;20953;-93
2021/06/28 12:19:52;;;;;;;3.80;3.50;;;32.80;86.10;;;;;;4970625;28;20657;-92
2021/06/28 12:22:21;;;;;;;3.60;3.30;;;33.10;86.80;;;;;;4970816;28;20759;-93
2021/06/28 12:24:50;;;;;;;2.93;2.73;;;33.30;86.60;;;;;;4974538;28;20718;-94
2021/06/28 12:27:20;;;;;;;3.17;2.87;;;33.70;84.50;;;;;;4972989;28;20686;-94
2021/06/28 12:29:49;;;;;;;2.87;2.67;;;34.00;87.10;;;;;;4975107;28;20663;-93
2021/06/28 12:32:25;;;;;;;3.37;3.07;;;34.80;83.30;;;;;;4970286;28;20636;-93
2021/06/28 12:35:00;;;;;;;3.10;2.90;;;34.60;79.10;;;;;;4966914;28;20222;-93
2021/06/28 12:37:30;;;;;;;5.20;2.63;;;34.80;80.20;;;;;;4969574;28;20709;-92
2021/06/28 12:40:22;;;;;;;2.47;2.27;;;34.90;80.80;;;;;;4961834;28;20890;-93
2021/06/28 12:42:52;;;;;;;3.27;2.97;;;34.20;80.00;;;;;;4955322;28;20680;-94
2021/06/28 12:45:22;;;;;;;2.70;2.50;;;34.30;80.10;;;;;;4968344;28;20207;-94
2021/06/28 12:47:52;;;;;;;3.43;2.67;;;34.30;81.50;;;;;;4965516;28;20673;-94
2021/06/28 12:50:22;;;;;;;2.37;2.27;;;33.30;82.30;;;;;;4963934;28;20629;-94
2021/06/28 12:52:50;;;;;;;2.83;2.63;;;33.30;82.20;;;;;;4968057;28;20622;-94
2021/06/28 12:55:22;;;;;;;5.10;3.60;;;33.60;84.40;;;;;;4969546;28;20630;-94
2021/06/28 12:58:01;;;;;;;2.70;2.50;;;34.40;82.60;;;;;;4968907;28;20672;-94
2021/06/28 13:00:30;;;;;;;2.83;2.50;;;34.30;79.90;;;;;;4967230;28;20684;-93
2021/06/28 13:03:03;;;;;;;10.40;2.90;;;34.00;80.30;;;;;;4967951;28;20671;-94